createdAt,value
2022-12-16T00:02:41.226Z,15.13
2022-12-16T00:05:44.636Z,17.43
2022-12-16T00:08:49.337Z,16.23
2022-12-16T00:11:52.334Z,15.70
2022-12-16T00:14:55.729Z,17.00
2022-12-16T00:17:58.715Z,13.90
2022-12-16T00:21:01.702Z,20.53
2022-12-16T00:24:06.284Z,14.47
2022-12-16T00:27:09.325Z,18.23
2022-12-16T00:30:13.424Z,19.23
2022-12-16T00:33:16.420Z,21.63
2022-12-16T00:36:19.386Z,16.20
2022-12-16T00:39:23.936Z,18.73
2022-12-16T00:42:26.890Z,15.23
2022-12-16T00:45:30.322Z,17.07
2022-12-16T00:48:33.345Z,17.57
2022-12-16T00:51:36.648Z,16.13
2022-12-16T00:54:40.957Z,18.30
2022-12-16T00:57:44.275Z,13.63
2022-12-16T01:00:47.323Z,16.10
2022-12-16T01:03:50.385Z,16.23
2022-12-16T01:06:54.568Z,18.47
2022-12-16T01:09:59.753Z,14.70
2022-12-16T01:13:02.825Z,16.50
2022-12-16T01:16:06.292Z,16.40
2022-12-16T01:19:09.344Z,15.63
2022-12-16T01:22:12.713Z,18.30
2022-12-16T01:25:17.711Z,20.87
2022-12-16T01:28:20.703Z,13.57
2022-12-16T01:31:24.308Z,14.77
2022-12-16T01:34:27.361Z,19.03
2022-12-16T01:37:30.379Z,17.17
2022-12-16T01:40:34.715Z,16.87
2022-12-16T01:43:39.613Z,15.00
2022-12-16T01:46:43.883Z,13.57
2022-12-16T01:49:51.303Z,15.60
2022-12-16T01:52:58.551Z,16.40
2022-12-16T01:56:04.238Z,14.97
2022-12-16T01:59:08.259Z,18.87
2022-12-16T02:02:13.105Z,16.97
2022-12-16T02:05:23.159Z,17.03
2022-12-16T02:08:26.213Z,13.10
2022-12-16T02:11:46.505Z,14.90
2022-12-16T02:15:08.607Z,16.97
2022-12-16T02:18:20.538Z,17.23
2022-12-16T02:21:40.227Z,17.03
2022-12-16T02:25:11.216Z,15.03
2022-12-16T02:28:26.928Z,17.23
2022-12-16T02:31:36.443Z,15.03
2022-12-16T02:34:48.488Z,16.73
2022-12-16T02:38:02.686Z,13.23
2022-12-16T02:41:08.221Z,18.10
2022-12-16T02:44:12.900Z,19.37
2022-12-16T02:47:17.210Z,15.03
2022-12-16T02:50:22.960Z,17.30
2022-12-16T02:53:26.087Z,14.23
2022-12-16T02:56:38.573Z,15.93
2022-12-16T02:59:49.260Z,13.63
2022-12-16T03:03:00.392Z,13.67
2022-12-16T03:06:05.787Z,23.07
2022-12-16T03:09:12.090Z,19.13
2022-12-16T03:12:19.090Z,16.97
2022-12-16T03:15:26.596Z,16.07
2022-12-16T03:18:31.965Z,15.03
2022-12-16T03:21:39.503Z,16.20
2022-12-16T03:24:43.182Z,15.87
2022-12-16T03:27:54.442Z,15.80
2022-12-16T03:31:06.289Z,14.83
2022-12-16T03:34:18.136Z,16.80
2022-12-16T03:37:25.240Z,17.47
2022-12-16T03:40:29.857Z,15.70
2022-12-16T03:43:33.344Z,19.60
2022-12-16T03:46:36.796Z,16.47
2022-12-16T03:49:41.658Z,15.07
2022-12-16T03:52:44.618Z,21.43
2022-12-16T03:55:47.628Z,13.93
2022-12-16T03:58:50.619Z,19.97
2022-12-16T04:01:53.711Z,17.90
2022-12-16T04:04:58.103Z,19.63
2022-12-16T04:08:02.183Z,14.43
2022-12-16T04:11:23.168Z,17.53
2022-12-16T04:14:43.558Z,14.93
2022-12-16T04:18:09.814Z,17.10
2022-12-16T04:21:28.114Z,19.57
2022-12-16T04:24:32.415Z,17.07
2022-12-16T04:27:35.399Z,14.73
2022-12-16T04:30:38.443Z,17.30
2022-12-16T04:33:58.982Z,17.00
2022-12-16T04:37:21.789Z,18.10
2022-12-16T04:40:42.203Z,16.83
2022-12-16T04:44:02.709Z,17.50
2022-12-16T04:47:23.280Z,15.83
2022-12-16T04:50:43.770Z,13.67
2022-12-16T04:54:05.559Z,17.17
2022-12-16T04:57:31.412Z,18.23
2022-12-16T05:00:52.079Z,14.73
2022-12-16T05:04:20.838Z,14.53
2022-12-16T05:07:41.397Z,18.20
2022-12-16T05:11:03.282Z,15.43
2022-12-16T05:14:24.217Z,15.60
2022-12-16T05:17:44.621Z,16.33
2022-12-16T05:21:01.561Z,16.37
2022-12-16T05:24:22.698Z,15.77
2022-12-16T05:27:44.974Z,19.20
2022-12-16T05:31:05.461Z,16.37
2022-12-16T05:34:27.595Z,20.00
2022-12-16T05:37:48.258Z,16.93
2022-12-16T05:41:08.646Z,15.57
2022-12-16T05:44:30.392Z,17.80
2022-12-16T05:47:50.780Z,16.90
2022-12-16T05:51:11.181Z,18.70
2022-12-16T05:54:31.533Z,20.33
2022-12-16T05:57:52.050Z,25.17
2022-12-16T06:01:13.868Z,22.77
2022-12-16T06:04:34.401Z,16.90
2022-12-16T06:07:55.009Z,20.30
2022-12-16T06:11:15.493Z,24.57
2022-12-16T06:14:35.837Z,21.83
2022-12-16T06:18:00.851Z,18.47
2022-12-16T06:21:21.393Z,18.60
2022-12-16T06:24:41.847Z,21.03
2022-12-16T06:28:07.260Z,19.50
2022-12-16T06:31:28.496Z,20.43
2022-12-16T06:34:50.328Z,17.43
2022-12-16T06:38:10.875Z,15.33
2022-12-16T06:41:31.530Z,16.47
2022-12-16T06:44:51.915Z,17.07
2022-12-16T06:48:12.259Z,15.23
2022-12-16T06:51:34.103Z,16.33
2022-12-16T06:54:54.610Z,18.60
2022-12-16T06:58:16.424Z,16.73
2022-12-16T07:01:37.115Z,17.23
2022-12-16T07:04:57.951Z,18.20
2022-12-16T07:08:19.837Z,18.83
2022-12-16T07:11:36.822Z,19.50
2022-12-16T07:14:57.604Z,17.30
2022-12-16T07:18:18.167Z,17.63
2022-12-16T07:21:38.711Z,17.33
2022-12-16T07:25:00.768Z,18.53
2022-12-16T07:28:21.189Z,18.43
2022-12-16T07:31:41.913Z,17.20
2022-12-16T07:35:02.492Z,18.50
2022-12-16T07:38:23.098Z,17.40
2022-12-16T07:41:45.001Z,20.23
2022-12-16T07:45:05.616Z,17.33
2022-12-16T07:48:26.614Z,17.37
2022-12-16T07:51:46.887Z,16.03
2022-12-16T07:55:07.327Z,21.53
2022-12-16T07:58:30.554Z,18.60
2022-12-16T08:01:51.214Z,17.83
2022-12-16T08:05:12.095Z,14.27
2022-12-16T08:08:32.588Z,17.83
2022-12-16T08:11:53.254Z,22.87
2022-12-16T08:15:16.183Z,19.30
2022-12-16T08:18:36.559Z,21.07
2022-12-16T08:21:56.866Z,20.70
2022-12-16T08:25:17.429Z,17.23
2022-12-16T08:28:37.924Z,19.43
2022-12-16T08:31:59.834Z,21.50
2022-12-16T08:35:21.341Z,19.47
2022-12-16T08:38:41.874Z,19.13
2022-12-16T08:42:02.232Z,22.10
2022-12-16T08:45:23.608Z,19.67
2022-12-16T08:48:45.482Z,18.40
2022-12-16T08:52:06.084Z,18.47
2022-12-16T08:55:29.614Z,17.40
2022-12-16T08:58:50.534Z,18.17
2022-12-16T09:02:12.275Z,19.03
2022-12-16T09:05:34.431Z,22.27
2022-12-16T09:08:54.871Z,21.60
2022-12-16T09:12:16.530Z,20.20
2022-12-16T09:15:37.151Z,19.40
2022-12-16T09:18:57.535Z,19.60
2022-12-16T09:22:19.161Z,22.80
2022-12-16T09:25:39.711Z,20.20
2022-12-16T09:29:00.099Z,21.77
2022-12-16T09:32:20.709Z,17.60
2022-12-16T09:35:37.683Z,22.33
2022-12-16T09:38:59.805Z,20.27
2022-12-16T09:42:28.270Z,21.63
2022-12-16T09:45:56.944Z,17.37
2022-12-16T09:49:24.931Z,19.43
2022-12-16T09:52:48.375Z,23.57
2022-12-16T09:56:10.878Z,22.00
2022-12-16T09:59:35.759Z,21.83
2022-12-16T10:02:59.332Z,21.47
2022-12-16T10:06:29.729Z,20.97
2022-12-16T10:10:02.789Z,25.30
2022-12-16T10:13:31.664Z,22.97
2022-12-16T10:16:59.482Z,22.20
2022-12-16T10:20:24.842Z,22.07
2022-12-16T10:23:50.925Z,20.17
2022-12-16T10:27:19.479Z,20.30
2022-12-16T10:30:41.458Z,23.63
2022-12-16T10:34:11.641Z,20.13
2022-12-16T10:37:34.772Z,18.50
2022-12-16T10:40:55.755Z,20.47
2022-12-16T10:44:17.725Z,21.93
2022-12-16T10:47:39.646Z,23.77
2022-12-16T10:51:00.120Z,18.20
2022-12-16T10:54:34.616Z,20.87
2022-12-16T10:58:04.262Z,20.57
2022-12-16T11:01:41.507Z,20.27
2022-12-16T11:05:04.232Z,20.57
2022-12-16T11:08:42.960Z,23.07
2022-12-16T11:12:03.521Z,22.43
2022-12-16T11:15:42.312Z,19.67
2022-12-16T11:19:08.473Z,22.93
2022-12-16T11:22:34.641Z,24.23
2022-12-16T11:25:54.314Z,20.77
2022-12-16T11:29:33.202Z,21.27
2022-12-16T11:32:55.096Z,20.27
2022-12-16T11:36:25.148Z,20.37
2022-12-16T11:39:53.009Z,21.37
2022-12-16T11:43:17.035Z,20.53
2022-12-16T11:46:47.192Z,19.83
2022-12-16T11:50:09.744Z,21.87
2022-12-16T11:53:44.956Z,18.47
2022-12-16T11:57:08.776Z,19.23
2022-12-16T12:00:33.896Z,20.87
2022-12-16T12:04:01.059Z,22.00
2022-12-16T12:07:45.249Z,22.63
2022-12-16T12:11:23.022Z,21.40
2022-12-16T12:14:53.750Z,22.40
2022-12-16T12:18:21.304Z,20.90
2022-12-16T12:21:43.950Z,22.87
2022-12-16T12:25:23.524Z,20.97
2022-12-16T12:29:08.269Z,18.67
2022-12-16T12:32:41.532Z,22.67
2022-12-16T12:36:14.430Z,21.43
2022-12-16T12:39:41.488Z,23.27
2022-12-16T12:43:06.482Z,21.80
2022-12-16T12:46:51.667Z,24.33
2022-12-16T12:50:16.778Z,22.40
2022-12-16T12:53:48.607Z,20.73
2022-12-16T12:57:11.372Z,22.73
2022-12-16T13:00:36.681Z,19.37
2022-12-16T13:04:01.675Z,21.40
2022-12-16T13:07:24.848Z,21.63
2022-12-16T13:10:52.304Z,19.77
2022-12-16T13:14:12.902Z,19.73
2022-12-16T13:17:33.519Z,24.90
2022-12-16T13:20:56.665Z,20.80
2022-12-16T13:24:39.635Z,24.40
2022-12-16T13:28:13.143Z,21.03
2022-12-16T13:31:34.583Z,24.23
2022-12-16T13:34:54.943Z,24.57
2022-12-16T13:38:17.814Z,23.40
2022-12-16T13:42:13.579Z,27.17
2022-12-16T13:45:50.346Z,26.70
2022-12-16T13:49:11.066Z,28.87
2022-12-16T13:52:35.437Z,22.37
2022-12-16T13:56:01.310Z,25.13
2022-12-16T13:59:30.101Z,25.17
2022-12-16T14:02:54.927Z,23.37
2022-12-16T14:06:18.621Z,22.03
2022-12-16T14:09:48.188Z,24.60
2022-12-16T14:13:20.228Z,23.47
2022-12-16T14:16:52.928Z,22.97
2022-12-16T14:20:19.826Z,25.67
2022-12-16T14:23:58.687Z,24.53
2022-12-16T14:27:24.696Z,22.33
2022-12-16T14:30:45.381Z,26.73
2022-12-16T14:34:12.470Z,24.33
2022-12-16T14:37:34.966Z,24.20
2022-12-16T14:40:55.930Z,26.67
2022-12-16T14:44:16.578Z,28.37
2022-12-16T14:47:38.946Z,23.50
2022-12-16T14:51:00.844Z,24.03
2022-12-16T14:54:42.815Z,24.60
2022-12-16T14:58:03.226Z,25.07
2022-12-16T15:01:32.496Z,25.97
2022-12-16T15:05:02.117Z,25.37
2022-12-16T15:08:24.891Z,25.70
2022-12-16T15:11:46.256Z,25.57
2022-12-16T15:15:07.119Z,22.33
2022-12-16T15:18:36.884Z,27.30
2022-12-16T15:21:57.354Z,25.57
2022-12-16T15:25:19.581Z,25.57
2022-12-16T15:28:45.711Z,23.40
2022-12-16T15:32:12.545Z,23.50
2022-12-16T15:35:43.162Z,25.23
2022-12-16T15:39:11.901Z,27.40
2022-12-16T15:42:40.202Z,27.33
2022-12-16T15:46:08.013Z,26.17
2022-12-16T15:49:37.875Z,38.90
2022-12-16T15:53:00.962Z,37.00
2022-12-16T15:56:20.555Z,37.57
2022-12-16T15:59:45.285Z,31.43
2022-12-16T16:03:08.085Z,33.53
2022-12-16T16:06:36.250Z,26.07
2022-12-16T16:09:58.041Z,29.73
2022-12-16T16:13:18.402Z,27.30
2022-12-16T16:16:40.045Z,26.87
2022-12-16T16:20:14.983Z,33.27
2022-12-16T16:23:35.896Z,28.50
2022-12-16T16:26:56.952Z,25.57
2022-12-16T16:30:18.543Z,28.10
2022-12-16T16:33:45.736Z,24.13
2022-12-16T16:37:11.063Z,26.27
2022-12-16T16:40:37.017Z,28.80
2022-12-16T16:43:57.446Z,27.97
2022-12-16T16:47:19.368Z,28.50
2022-12-16T16:50:41.157Z,29.57
2022-12-16T16:54:02.061Z,28.90
2022-12-16T16:57:22.532Z,27.47
2022-12-16T17:00:43.498Z,26.60
2022-12-16T17:04:04.153Z,27.30
2022-12-16T17:07:26.230Z,29.27
2022-12-16T17:10:46.671Z,29.40
2022-12-16T17:14:07.181Z,29.80
2022-12-16T17:17:28.815Z,30.83
2022-12-16T17:20:49.436Z,30.37
2022-12-16T17:24:11.195Z,29.63
2022-12-16T17:27:33.073Z,26.80
2022-12-16T17:30:56.626Z,30.63
2022-12-16T17:34:22.993Z,30.03
2022-12-16T17:37:44.742Z,33.10
2022-12-16T17:41:11.683Z,28.33
2022-12-16T17:44:32.402Z,31.57
2022-12-16T17:47:52.908Z,29.20
2022-12-16T17:51:13.338Z,33.70
2022-12-16T17:54:33.830Z,35.17
2022-12-16T17:57:55.440Z,31.03
2022-12-16T18:01:19.600Z,29.07
2022-12-16T18:04:54.940Z,30.73
2022-12-16T18:08:15.422Z,32.10
2022-12-16T18:11:38.834Z,35.73
2022-12-16T18:15:01.233Z,32.87
2022-12-16T18:18:21.784Z,37.03
2022-12-16T18:21:42.313Z,33.17
2022-12-16T18:25:02.709Z,38.17
2022-12-16T18:28:23.354Z,37.20
2022-12-16T18:31:45.115Z,33.93
2022-12-16T18:35:05.581Z,30.33
2022-12-16T18:38:40.538Z,33.63
2022-12-16T18:42:02.946Z,30.73
2022-12-16T18:45:24.139Z,29.47
2022-12-16T18:48:45.851Z,31.37
2022-12-16T18:52:08.427Z,33.23
2022-12-16T18:55:29.099Z,32.93
2022-12-16T18:58:51.621Z,35.40
2022-12-16T19:02:12.851Z,32.50
2022-12-16T19:05:34.996Z,30.30
2022-12-16T19:08:55.634Z,29.77
2022-12-16T19:12:16.775Z,33.50
2022-12-16T19:15:45.639Z,31.30
2022-12-16T19:19:06.308Z,34.63
2022-12-16T19:22:28.237Z,33.20
2022-12-16T19:25:48.586Z,34.70
2022-12-16T19:29:09.235Z,31.57
2022-12-16T19:32:29.617Z,31.50
2022-12-16T19:35:50.055Z,32.10
2022-12-16T19:39:11.799Z,33.23
2022-12-16T19:42:32.713Z,29.87
2022-12-16T19:45:53.331Z,33.60
2022-12-16T19:49:17.290Z,32.80
2022-12-16T19:52:37.685Z,32.23
2022-12-16T19:55:59.612Z,31.13
2022-12-16T19:59:20.633Z,31.90
2022-12-16T20:02:41.215Z,31.67
2022-12-16T20:06:02.020Z,30.23
2022-12-16T20:09:22.606Z,32.30
2022-12-16T20:12:43.730Z,34.00
2022-12-16T20:16:04.560Z,33.30
2022-12-16T20:19:24.937Z,35.33
2022-12-16T20:22:45.335Z,34.73
2022-12-16T20:26:13.441Z,33.83
2022-12-16T20:29:35.395Z,32.10
2022-12-16T20:32:56.158Z,28.03
2022-12-16T20:36:17.850Z,28.93
2022-12-16T20:39:34.776Z,32.50
2022-12-16T20:42:55.551Z,28.63
2022-12-16T20:46:18.343Z,33.13
2022-12-16T20:49:39.567Z,34.07
2022-12-16T20:52:59.902Z,30.30
2022-12-16T20:56:20.838Z,29.17
2022-12-16T20:59:41.530Z,33.57
2022-12-16T21:03:03.392Z,29.90
2022-12-16T21:06:24.832Z,31.17
2022-12-16T21:09:45.303Z,34.23
2022-12-16T21:13:07.957Z,34.30
2022-12-16T21:16:28.881Z,29.70
2022-12-16T21:19:51.700Z,35.40
2022-12-16T21:23:20.448Z,29.97
2022-12-16T21:26:41.481Z,30.07
2022-12-16T21:30:02.036Z,29.10
2022-12-16T21:33:23.120Z,26.83
2022-12-16T21:36:45.036Z,33.93
2022-12-16T21:40:20.057Z,31.67
2022-12-16T21:43:40.718Z,29.27
2022-12-16T21:47:01.765Z,25.50
2022-12-16T21:50:23.044Z,27.07
2022-12-16T21:53:45.377Z,29.37
2022-12-16T21:57:06.347Z,27.50
2022-12-16T22:00:28.368Z,30.93
2022-12-16T22:03:53.156Z,27.27
2022-12-16T22:07:14.517Z,31.67
2022-12-16T22:10:36.794Z,28.63
2022-12-16T22:13:57.744Z,26.77
2022-12-16T22:17:18.174Z,25.87
2022-12-16T22:20:38.904Z,28.80
2022-12-16T22:23:59.508Z,29.43
2022-12-16T22:27:21.425Z,31.97
2022-12-16T22:30:42.435Z,28.43
2022-12-16T22:34:06.567Z,33.07
2022-12-16T22:37:27.246Z,32.63
2022-12-16T22:40:47.677Z,28.40
2022-12-16T22:44:09.359Z,29.83
2022-12-16T22:47:30.419Z,31.23
2022-12-16T22:50:50.836Z,32.17
2022-12-16T22:54:12.315Z,30.67
2022-12-16T22:57:29.429Z,29.60
2022-12-16T23:00:52.080Z,34.67
2022-12-16T23:04:15.431Z,32.27
2022-12-16T23:07:35.933Z,28.90
2022-12-16T23:10:56.424Z,28.87
2022-12-16T23:14:17.311Z,26.93
2022-12-16T23:17:39.059Z,33.27
2022-12-16T23:21:04.048Z,30.13
2022-12-16T23:24:25.426Z,27.80
2022-12-16T23:27:46.062Z,28.57
2022-12-16T23:31:10.632Z,32.00
2022-12-16T23:34:32.824Z,26.07
2022-12-16T23:37:53.453Z,29.83
2022-12-16T23:41:17.378Z,26.83
2022-12-16T23:44:37.774Z,29.83
2022-12-16T23:47:58.137Z,28.23
2022-12-16T23:51:19.927Z,29.60
2022-12-16T23:54:40.374Z,26.67
2022-12-16T23:58:00.793Z,29.37
